createdAt,value
2022-12-13T00:01:46.327Z,2.38
2022-12-13T00:04:16.009Z,2.32
2022-12-13T00:06:44.570Z,2.24
2022-12-13T00:09:15.003Z,2.17
2022-12-13T00:11:43.191Z,2.22
2022-12-13T00:14:11.651Z,2.22
2022-12-13T00:16:39.751Z,2.20
2022-12-13T00:19:07.953Z,2.00
2022-12-13T00:21:37.405Z,1.88
2022-12-13T00:24:07.541Z,1.84
2022-12-13T00:26:36.615Z,1.77
2022-12-13T00:29:08.454Z,1.69
2022-12-13T00:31:59.524Z,1.65
2022-12-13T00:34:25.433Z,1.69
2022-12-13T00:36:56.518Z,1.68
2022-12-13T00:39:24.558Z,1.66
2022-12-13T00:41:52.556Z,1.64
2022-12-13T00:44:20.921Z,1.56
2022-12-13T00:46:51.707Z,1.57
2022-12-13T00:49:19.812Z,1.49
2022-12-13T00:51:49.571Z,1.51
2022-12-13T00:54:19.200Z,1.53
2022-12-13T00:56:47.205Z,1.49
2022-12-13T00:59:16.155Z,1.46
2022-12-13T01:01:44.216Z,1.42
2022-12-13T01:04:12.353Z,1.36
2022-12-13T01:06:42.435Z,1.26
2022-12-13T01:09:17.111Z,1.16
2022-12-13T01:11:47.347Z,1.23
2022-12-13T01:14:15.913Z,1.22
2022-12-13T01:16:44.083Z,1.21
2022-12-13T01:19:12.175Z,1.17
2022-12-13T01:21:40.220Z,1.11
2022-12-13T01:24:08.440Z,1.07
2022-12-13T01:26:36.456Z,1.05
2022-12-13T01:29:05.932Z,0.92
2022-12-13T01:31:34.904Z,0.92
2022-12-13T01:34:10.271Z,0.99
2022-12-13T01:36:39.166Z,1.01
2022-12-13T01:39:07.844Z,1.01
2022-12-13T01:41:44.784Z,0.99
2022-12-13T01:44:46.211Z,0.87
2022-12-13T01:47:17.482Z,0.80
2022-12-13T01:49:45.618Z,0.91
2022-12-13T01:52:16.148Z,0.99
2022-12-13T01:54:50.123Z,0.99
2022-12-13T01:57:21.128Z,1.13
2022-12-13T01:59:51.460Z,1.03
2022-12-13T02:02:21.109Z,1.10
2022-12-13T02:04:54.294Z,1.18
2022-12-13T02:07:27.651Z,1.17
2022-12-13T02:09:59.899Z,1.19
2022-12-13T02:12:30.462Z,1.23
2022-12-13T02:15:00.843Z,1.07
2022-12-13T02:17:45.697Z,1.03
2022-12-13T02:20:43.908Z,1.12
2022-12-13T02:23:47.516Z,1.07
2022-12-13T02:26:44.207Z,0.96
2022-12-13T02:29:38.161Z,0.96
2022-12-13T02:32:13.112Z,1.12
2022-12-13T02:34:45.913Z,1.17
2022-12-13T02:37:21.438Z,1.22
2022-12-13T02:39:57.504Z,1.24
2022-12-13T02:42:30.172Z,1.13
2022-12-13T02:45:02.821Z,0.98
2022-12-13T02:47:34.481Z,0.86
2022-12-13T02:50:07.505Z,1.01
2022-12-13T02:52:36.247Z,1.03
2022-12-13T02:55:08.976Z,1.03
2022-12-13T02:57:39.206Z,1.04
2022-12-13T03:00:10.656Z,1.04
2022-12-13T03:02:52.097Z,1.08
2022-12-13T03:06:01.311Z,1.12
2022-12-13T03:08:38.353Z,1.27
2022-12-13T03:11:10.455Z,1.36
2022-12-13T03:13:48.937Z,1.33
2022-12-13T03:16:29.700Z,1.34
2022-12-13T03:19:02.621Z,1.37
2022-12-13T03:21:31.151Z,1.32
2022-12-13T03:23:59.177Z,1.26
2022-12-13T03:26:28.389Z,1.27
2022-12-13T03:28:56.498Z,1.20
2022-12-13T03:31:24.660Z,1.17
2022-12-13T03:33:52.725Z,1.19
2022-12-13T03:36:22.640Z,1.13
2022-12-13T03:38:53.375Z,0.68
2022-12-13T03:41:24.419Z,0.89
2022-12-13T03:43:52.532Z,0.94
2022-12-13T03:46:20.565Z,0.91
2022-12-13T03:48:48.764Z,0.84
2022-12-13T03:51:16.764Z,0.75
2022-12-13T03:53:46.173Z,0.82
2022-12-13T03:56:14.412Z,0.75
2022-12-13T03:58:43.234Z,0.78
2022-12-13T04:01:13.868Z,0.83
2022-12-13T04:03:43.538Z,0.83
2022-12-13T04:06:12.305Z,0.91
2022-12-13T04:08:41.050Z,0.97
2022-12-13T04:11:27.830Z,1.02
2022-12-13T04:13:58.045Z,0.97
2022-12-13T04:16:26.098Z,0.95
2022-12-13T04:18:54.165Z,0.88
2022-12-13T04:21:22.200Z,0.95
2022-12-13T04:23:50.272Z,0.88
2022-12-13T04:26:19.640Z,0.87
2022-12-13T04:28:54.060Z,0.86
2022-12-13T04:31:23.075Z,0.93
2022-12-13T04:33:51.156Z,0.68
2022-12-13T04:36:30.957Z,0.78
2022-12-13T04:39:01.425Z,0.86
2022-12-13T04:41:36.008Z,0.93
2022-12-13T04:44:05.330Z,0.79
2022-12-13T04:46:33.345Z,0.51
2022-12-13T04:49:01.613Z,0.63
2022-12-13T04:51:30.000Z,0.65
2022-12-13T04:54:23.357Z,0.71
2022-12-13T04:56:47.726Z,0.66
2022-12-13T04:59:15.869Z,0.65
2022-12-13T05:01:43.912Z,0.58
2022-12-13T05:04:11.905Z,0.59
2022-12-13T05:06:40.566Z,0.34
2022-12-13T05:09:11.536Z,0.37
2022-12-13T05:11:45.586Z,0.39
2022-12-13T05:14:23.269Z,0.47
2022-12-13T05:16:51.960Z,0.39
2022-12-13T05:19:20.244Z,0.32
2022-12-13T05:21:49.162Z,0.31
2022-12-13T05:24:17.215Z,0.27
2022-12-13T05:26:45.299Z,0.25
2022-12-13T05:29:13.298Z,0.18
2022-12-13T05:31:42.775Z,-0.00
2022-12-13T05:34:10.908Z,0.14
2022-12-13T05:36:38.937Z,0.21
2022-12-13T05:39:06.968Z,0.30
2022-12-13T05:41:56.071Z,0.37
2022-12-13T05:44:30.498Z,0.42
2022-12-13T05:47:02.451Z,0.36
2022-12-13T05:49:32.234Z,0.33
2022-12-13T05:52:00.614Z,0.31
2022-12-13T05:54:28.797Z,0.16
2022-12-13T05:56:56.826Z,0.21
2022-12-13T05:59:24.917Z,0.30
2022-12-13T06:01:53.059Z,0.38
2022-12-13T06:04:23.508Z,0.39
2022-12-13T06:06:52.299Z,0.43
2022-12-13T06:09:20.558Z,0.40
2022-12-13T06:11:48.861Z,0.37
2022-12-13T06:14:22.516Z,0.17
2022-12-13T06:16:52.305Z,0.21
2022-12-13T06:19:22.280Z,0.27
2022-12-13T06:21:50.649Z,0.27
2022-12-13T06:24:20.280Z,0.25
2022-12-13T06:26:48.993Z,0.19
2022-12-13T06:29:23.692Z,0.14
2022-12-13T06:32:02.245Z,-0.06
2022-12-13T06:34:34.427Z,0.03
2022-12-13T06:37:03.566Z,0.09
2022-12-13T06:39:32.222Z,0.05
2022-12-13T06:42:08.743Z,0.09
2022-12-13T06:44:37.164Z,0.03
2022-12-13T06:47:11.675Z,-0.12
2022-12-13T06:49:44.687Z,-0.23
2022-12-13T06:52:14.775Z,-0.21
2022-12-13T06:54:43.052Z,-0.28
2022-12-13T06:57:11.755Z,-0.25
2022-12-13T06:59:40.328Z,-0.29
2022-12-13T07:02:24.687Z,-0.32
2022-12-13T07:04:55.701Z,-0.30
2022-12-13T07:07:24.626Z,-0.37
2022-12-13T07:09:52.741Z,-0.32
2022-12-13T07:12:21.682Z,-0.24
2022-12-13T07:14:49.712Z,-0.20
2022-12-13T07:17:33.359Z,-0.20
2022-12-13T07:20:07.943Z,-0.21
2022-12-13T07:22:41.564Z,-0.19
2022-12-13T07:25:27.059Z,-0.16
2022-12-13T07:28:01.095Z,-0.27
2022-12-13T07:30:29.951Z,-0.31
2022-12-13T07:32:58.367Z,-0.30
2022-12-13T07:35:27.823Z,-0.25
2022-12-13T07:37:56.039Z,-0.39
2022-12-13T07:40:24.181Z,-0.38
2022-12-13T07:42:52.760Z,-0.36
2022-12-13T07:45:21.388Z,-0.28
2022-12-13T07:47:49.755Z,-0.24
2022-12-13T07:50:24.882Z,-0.22
2022-12-13T07:52:55.518Z,-0.20
2022-12-13T07:55:33.002Z,-0.14
2022-12-13T07:58:07.620Z,-0.12
2022-12-13T08:00:36.317Z,-0.14
2022-12-13T08:03:05.578Z,-0.21
2022-12-13T08:05:39.032Z,-0.22
2022-12-13T08:08:11.806Z,-0.22
2022-12-13T08:10:40.421Z,-0.27
2022-12-13T08:13:10.788Z,-0.24
2022-12-13T08:15:39.386Z,-0.16
2022-12-13T08:18:07.659Z,-0.14
2022-12-13T08:20:35.705Z,-0.10
2022-12-13T08:23:03.687Z,-0.01
2022-12-13T08:25:33.133Z,-0.15
2022-12-13T08:28:01.696Z,-0.14
2022-12-13T08:30:31.764Z,-0.10
2022-12-13T08:32:59.814Z,-0.16
2022-12-13T08:35:34.914Z,-0.14
2022-12-13T08:38:03.997Z,-0.03
2022-12-13T08:40:34.213Z,0.04
2022-12-13T08:43:02.206Z,0.01
2022-12-13T08:45:31.701Z,-0.23
2022-12-13T08:48:00.693Z,-0.13
2022-12-13T08:50:29.337Z,-0.01
2022-12-13T08:52:57.952Z,0.13
2022-12-13T08:55:31.536Z,0.28
2022-12-13T08:58:08.380Z,0.43
2022-12-13T09:00:38.305Z,0.50
2022-12-13T09:03:10.091Z,0.45
2022-12-13T09:05:38.902Z,0.49
2022-12-13T09:08:22.997Z,0.54
2022-12-13T09:10:59.996Z,0.61
2022-12-13T09:13:31.267Z,0.66
2022-12-13T09:16:01.420Z,0.61
2022-12-13T09:18:36.605Z,0.57
2022-12-13T09:21:11.302Z,0.66
2022-12-13T09:23:46.083Z,0.73
2022-12-13T09:26:16.622Z,0.69
2022-12-13T09:28:46.060Z,0.55
2022-12-13T09:31:16.268Z,0.68
2022-12-13T09:33:45.504Z,0.64
2022-12-13T09:36:16.589Z,0.57
2022-12-13T09:38:45.334Z,0.73
2022-12-13T09:41:28.970Z,0.75
2022-12-13T09:44:02.756Z,1.16
2022-12-13T09:46:34.460Z,1.42
2022-12-13T09:49:23.081Z,1.61
2022-12-13T09:52:10.108Z,1.86
2022-12-13T09:54:48.250Z,2.08
2022-12-13T09:57:31.202Z,2.79
2022-12-13T10:00:03.396Z,3.49
2022-12-13T10:02:43.892Z,3.91
2022-12-13T10:05:22.498Z,4.52
2022-12-13T10:07:55.381Z,4.64
2022-12-13T10:10:24.216Z,4.62
2022-12-13T10:12:57.151Z,4.78
2022-12-13T10:15:27.307Z,4.95
2022-12-13T10:17:56.095Z,4.79
2022-12-13T10:20:28.904Z,4.69
2022-12-13T10:23:31.360Z,4.88
2022-12-13T10:25:50.833Z,5.20
2022-12-13T10:28:22.269Z,5.17
2022-12-13T10:30:52.194Z,5.18
2022-12-13T10:33:26.664Z,5.34
2022-12-13T10:36:07.095Z,5.35
2022-12-13T10:38:40.937Z,5.55
2022-12-13T10:41:38.446Z,5.82
2022-12-13T10:44:22.533Z,6.09
2022-12-13T10:46:55.121Z,6.24
2022-12-13T10:49:25.281Z,5.69
2022-12-13T10:51:54.512Z,5.07
2022-12-13T10:54:28.600Z,4.72
2022-12-13T10:57:01.120Z,4.06
2022-12-13T10:59:34.691Z,3.90
2022-12-13T11:02:29.016Z,3.75
2022-12-13T11:04:58.238Z,3.73
2022-12-13T11:07:29.761Z,3.65
2022-12-13T11:10:05.414Z,3.58
2022-12-13T11:12:34.444Z,3.82
2022-12-13T11:15:06.681Z,3.75
2022-12-13T11:17:48.683Z,3.91
2022-12-13T11:20:20.829Z,3.97
2022-12-13T11:22:49.450Z,4.07
2022-12-13T11:25:22.938Z,4.08
2022-12-13T11:28:05.371Z,4.20
2022-12-13T11:31:01.880Z,4.14
2022-12-13T11:33:47.656Z,4.42
2022-12-13T11:36:28.524Z,4.73
2022-12-13T11:39:10.585Z,4.63
2022-12-13T11:41:43.385Z,4.49
2022-12-13T11:44:14.849Z,4.21
2022-12-13T11:46:46.133Z,4.35
2022-12-13T11:49:19.070Z,4.51
2022-12-13T11:51:52.520Z,4.67
2022-12-13T11:54:27.153Z,4.63
2022-12-13T11:57:00.687Z,4.62
2022-12-13T11:59:40.037Z,3.89
2022-12-13T12:02:16.408Z,4.20
2022-12-13T12:04:54.923Z,4.06
2022-12-13T12:07:35.738Z,4.26
2022-12-13T12:10:16.098Z,4.35
2022-12-13T12:12:50.697Z,4.34
2022-12-13T12:15:26.746Z,4.31
2022-12-13T12:17:55.895Z,4.14
2022-12-13T12:20:35.430Z,4.22
2022-12-13T12:23:12.569Z,4.49
2022-12-13T12:25:48.873Z,4.53
2022-12-13T12:28:27.533Z,4.65
2022-12-13T12:31:07.257Z,4.61
2022-12-13T12:33:46.328Z,4.56
2022-12-13T12:36:30.159Z,4.67
2022-12-13T12:39:26.439Z,4.72
2022-12-13T12:42:29.240Z,4.39
2022-12-13T12:45:17.463Z,4.29
2022-12-13T12:48:58.525Z,4.09
2022-12-13T12:51:07.073Z,4.56
2022-12-13T12:53:46.498Z,4.92
2022-12-13T12:56:31.140Z,5.52
2022-12-13T12:59:05.914Z,6.22
2022-12-13T13:01:46.764Z,6.73
2022-12-13T13:04:22.806Z,7.17
2022-12-13T13:06:54.936Z,7.77
2022-12-13T13:09:32.214Z,8.09
2022-12-13T13:12:28.603Z,8.34
2022-12-13T13:14:52.932Z,8.19
2022-12-13T13:17:47.019Z,7.84
2022-12-13T13:20:25.642Z,7.44
2022-12-13T13:23:25.228Z,6.85
2022-12-13T13:26:15.909Z,7.05
2022-12-13T13:28:43.240Z,7.45
2022-12-13T13:31:11.412Z,7.84
2022-12-13T13:33:50.169Z,7.87
2022-12-13T13:36:47.547Z,7.91
2022-12-13T13:39:19.447Z,8.18
2022-12-13T13:42:17.475Z,8.26
2022-12-13T13:45:18.114Z,8.03
2022-12-13T13:48:04.482Z,8.18
2022-12-13T13:51:15.625Z,8.26
2022-12-13T13:54:32.901Z,8.71
2022-12-13T13:58:08.369Z,8.66
2022-12-13T14:00:42.625Z,8.61
2022-12-13T14:03:55.490Z,8.08
2022-12-13T14:07:01.213Z,7.41
2022-12-13T14:10:04.451Z,6.55
2022-12-13T14:13:10.292Z,6.10
2022-12-13T14:16:28.931Z,5.87
2022-12-13T14:19:45.973Z,5.62
2022-12-13T14:22:26.722Z,5.32
2022-12-13T14:25:15.423Z,5.30
2022-12-13T14:27:49.065Z,5.24
2022-12-13T14:30:27.856Z,5.04
2022-12-13T14:32:58.315Z,4.83
2022-12-13T14:35:28.297Z,4.66
2022-12-13T14:37:59.150Z,4.58
2022-12-13T14:40:32.059Z,4.46
2022-12-13T14:43:02.245Z,4.43
2022-12-13T14:45:32.275Z,4.41
2022-12-13T14:48:04.574Z,4.27
2022-12-13T14:50:35.370Z,4.20
2022-12-13T14:53:04.184Z,4.19
2022-12-13T14:55:36.161Z,4.12
2022-12-13T14:58:17.660Z,4.04
2022-12-13T15:00:46.077Z,4.03
2022-12-13T15:03:23.530Z,3.91
2022-12-13T15:05:56.537Z,3.86
2022-12-13T15:08:25.061Z,3.69
2022-12-13T15:10:55.933Z,3.67
2022-12-13T15:13:29.868Z,3.60
2022-12-13T15:16:01.587Z,3.59
2022-12-13T15:18:33.064Z,3.55
2022-12-13T15:21:21.619Z,3.40
2022-12-13T15:23:53.980Z,3.32
2022-12-13T15:26:28.750Z,3.32
2022-12-13T15:29:09.927Z,3.34
2022-12-13T15:31:40.151Z,3.28
2022-12-13T15:34:35.038Z,3.23
2022-12-13T15:37:06.480Z,3.10
2022-12-13T15:39:39.705Z,2.98
2022-12-13T15:42:19.767Z,3.02
2022-12-13T15:44:53.941Z,2.99
2022-12-13T15:47:28.187Z,2.99
2022-12-13T15:49:59.008Z,2.93
2022-12-13T15:52:33.306Z,2.89
2022-12-13T15:55:28.655Z,2.90
2022-12-13T15:57:58.717Z,2.86
2022-12-13T16:00:31.714Z,2.89
2022-12-13T16:03:08.433Z,2.82
2022-12-13T16:05:40.307Z,2.76
2022-12-13T16:08:20.877Z,2.79
2022-12-13T16:10:49.819Z,2.76
2022-12-13T16:13:26.289Z,2.75
2022-12-13T16:16:00.447Z,2.71
2022-12-13T16:18:52.013Z,2.67
2022-12-13T16:21:20.088Z,2.58
2022-12-13T16:23:49.258Z,2.54
2022-12-13T16:26:24.182Z,2.57
2022-12-13T16:28:52.223Z,2.66
2022-12-13T16:31:23.619Z,2.69
2022-12-13T16:33:52.892Z,2.64
2022-12-13T16:36:23.422Z,2.45
2022-12-13T16:38:52.096Z,2.46
2022-12-13T16:41:22.048Z,2.51
2022-12-13T16:43:55.948Z,2.40
2022-12-13T16:47:12.764Z,2.44
2022-12-13T16:49:21.223Z,2.46
2022-12-13T16:51:49.570Z,2.39
2022-12-13T16:54:18.735Z,2.41
2022-12-13T16:56:46.897Z,2.38
2022-12-13T16:59:16.306Z,2.37
2022-12-13T17:01:46.805Z,2.28
2022-12-13T17:04:20.759Z,2.28
2022-12-13T17:06:49.898Z,2.26
2022-12-13T17:09:18.165Z,2.13
2022-12-13T17:11:46.244Z,2.09
2022-12-13T17:14:14.332Z,2.09
2022-12-13T17:16:42.483Z,1.92
2022-12-13T17:19:15.455Z,2.00
2022-12-13T17:21:43.693Z,1.96
2022-12-13T17:24:12.592Z,1.95
2022-12-13T17:26:41.147Z,1.88
2022-12-13T17:29:22.168Z,1.86
2022-12-13T17:31:50.259Z,1.91
2022-12-13T17:34:19.733Z,1.90
2022-12-13T17:36:47.797Z,1.82
2022-12-13T17:39:15.838Z,1.81
2022-12-13T17:41:43.901Z,1.81
2022-12-13T17:44:24.355Z,1.78
2022-12-13T17:46:54.536Z,1.71
2022-12-13T17:49:25.322Z,1.69
2022-12-13T17:51:54.498Z,1.72
2022-12-13T17:54:23.843Z,1.69
2022-12-13T17:56:52.004Z,1.66
2022-12-13T17:59:20.309Z,1.71
2022-12-13T18:01:48.727Z,1.75
2022-12-13T18:04:17.440Z,1.57
2022-12-13T18:06:46.841Z,1.50
2022-12-13T18:09:15.361Z,1.58
2022-12-13T18:11:43.371Z,1.62
2022-12-13T18:14:11.437Z,1.51
2022-12-13T18:16:39.495Z,1.45
2022-12-13T18:19:11.618Z,1.52
2022-12-13T18:21:40.193Z,1.58
2022-12-13T18:24:11.252Z,1.54
2022-12-13T18:26:39.299Z,1.56
2022-12-13T18:29:07.355Z,1.55
2022-12-13T18:31:35.539Z,1.56
2022-12-13T18:34:04.989Z,1.51
2022-12-13T18:36:33.094Z,1.54
2022-12-13T18:39:01.950Z,1.43
2022-12-13T18:41:32.249Z,1.42
2022-12-13T18:44:02.083Z,1.42
2022-12-13T18:46:32.363Z,1.50
2022-12-13T18:49:00.619Z,1.53
2022-12-13T18:51:29.285Z,1.41
2022-12-13T18:53:57.565Z,1.50
2022-12-13T18:56:27.834Z,1.46
2022-12-13T18:58:59.374Z,1.40
2022-12-13T19:01:28.653Z,1.29
2022-12-13T19:03:56.878Z,1.35
2022-12-13T19:06:27.272Z,1.32
2022-12-13T19:08:56.633Z,1.32
2022-12-13T19:11:25.883Z,1.38
2022-12-13T19:13:54.743Z,1.24
2022-12-13T19:16:25.322Z,1.31
2022-12-13T19:18:54.067Z,1.36
2022-12-13T19:21:23.395Z,1.36
2022-12-13T19:23:57.503Z,1.31
2022-12-13T19:26:27.438Z,1.34
2022-12-13T19:28:57.225Z,1.37
2022-12-13T19:31:31.565Z,1.36
2022-12-13T19:34:01.959Z,1.37
2022-12-13T19:36:30.745Z,1.33
2022-12-13T19:38:59.027Z,1.29
2022-12-13T19:41:27.733Z,1.23
2022-12-13T19:43:55.821Z,1.25
2022-12-13T19:46:24.109Z,1.26
2022-12-13T19:48:53.672Z,1.25
2022-12-13T19:51:22.699Z,1.20
2022-12-13T19:53:50.849Z,1.12
2022-12-13T19:56:21.015Z,1.07
2022-12-13T19:58:50.768Z,1.20
2022-12-13T20:01:19.379Z,1.24
2022-12-13T20:03:48.287Z,1.18
2022-12-13T20:06:20.703Z,1.14
2022-12-13T20:08:49.150Z,1.22
2022-12-13T20:11:19.390Z,1.24
2022-12-13T20:13:48.136Z,1.18
2022-12-13T20:16:18.725Z,1.16
2022-12-13T20:18:47.350Z,1.20
2022-12-13T20:21:17.361Z,1.26
2022-12-13T20:23:49.357Z,1.23
2022-12-13T20:26:19.939Z,1.23
2022-12-13T20:28:48.483Z,1.23
2022-12-13T20:31:18.222Z,1.23
2022-12-13T20:33:46.555Z,1.28
2022-12-13T20:36:26.124Z,1.26
2022-12-13T20:38:56.027Z,1.25
2022-12-13T20:41:25.416Z,1.22
2022-12-13T20:43:54.355Z,1.22
2022-12-13T20:46:23.303Z,1.14
2022-12-13T20:48:52.735Z,1.13
2022-12-13T20:51:23.845Z,1.16
2022-12-13T20:53:55.781Z,1.11
2022-12-13T20:56:25.529Z,1.10
2022-12-13T20:58:54.099Z,1.08
2022-12-13T21:01:24.192Z,1.06
2022-12-13T21:03:55.170Z,1.02
2022-12-13T21:06:24.737Z,1.03
2022-12-13T21:08:52.981Z,0.97
2022-12-13T21:11:28.930Z,0.96
2022-12-13T21:14:05.403Z,0.95
2022-12-13T21:16:38.584Z,0.94
2022-12-13T21:19:08.934Z,0.93
2022-12-13T21:21:38.674Z,0.92
2022-12-13T21:24:07.894Z,0.91
2022-12-13T21:26:36.684Z,0.90
2022-12-13T21:29:07.638Z,0.89
2022-12-13T21:31:37.284Z,0.87
2022-12-13T21:34:06.668Z,0.87
2022-12-13T21:36:36.718Z,0.87
2022-12-13T21:39:09.065Z,0.84
2022-12-13T21:41:37.081Z,0.81
2022-12-13T21:44:05.406Z,0.78
2022-12-13T21:47:10.345Z,0.76
2022-12-13T21:49:22.031Z,0.71
2022-12-13T21:51:50.460Z,0.74
2022-12-13T21:54:20.097Z,0.77
2022-12-13T21:57:05.369Z,0.76
2022-12-13T21:59:33.696Z,0.76
2022-12-13T22:02:19.022Z,0.78
2022-12-13T22:04:48.849Z,0.74
2022-12-13T22:07:19.063Z,0.74
2022-12-13T22:09:49.193Z,0.69
2022-12-13T22:12:22.552Z,0.66
2022-12-13T22:14:51.958Z,0.61
2022-12-13T22:17:24.903Z,0.65
2022-12-13T22:19:55.515Z,0.66
2022-12-13T22:22:25.196Z,0.69
2022-12-13T22:24:55.129Z,0.72
2022-12-13T22:27:25.410Z,0.77
2022-12-13T22:29:54.300Z,0.69
2022-12-13T22:32:22.535Z,0.73
2022-12-13T22:34:50.888Z,0.64
2022-12-13T22:37:18.994Z,0.60
2022-12-13T22:39:47.108Z,0.58
2022-12-13T22:42:16.596Z,0.69
2022-12-13T22:44:44.614Z,0.68
2022-12-13T22:47:12.671Z,0.65
2022-12-13T22:49:41.078Z,0.73
2022-12-13T22:52:09.547Z,0.63
2022-12-13T22:54:37.590Z,0.78
2022-12-13T22:57:05.720Z,0.78
2022-12-13T22:59:35.221Z,0.81
2022-12-13T23:02:04.165Z,0.77
2022-12-13T23:04:35.171Z,0.76
2022-12-13T23:07:03.209Z,0.77
2022-12-13T23:09:31.702Z,0.59
2022-12-13T23:12:17.085Z,0.69
2022-12-13T23:14:46.529Z,0.80
2022-12-13T23:17:14.600Z,0.82
2022-12-13T23:19:50.057Z,0.80
2022-12-13T23:22:19.813Z,0.80
2022-12-13T23:24:47.851Z,0.80
2022-12-13T23:27:16.037Z,0.80
2022-12-13T23:29:44.077Z,0.79
2022-12-13T23:32:13.742Z,0.77
2022-12-13T23:34:41.797Z,0.76
2022-12-13T23:37:09.826Z,0.74
2022-12-13T23:39:37.855Z,0.73
2022-12-13T23:42:06.078Z,0.71
2022-12-13T23:44:34.085Z,0.62
2022-12-13T23:47:02.160Z,0.59
2022-12-13T23:49:31.586Z,0.55
2022-12-13T23:51:59.636Z,0.52
2022-12-13T23:54:27.809Z,0.52
2022-12-13T23:56:55.833Z,0.49
2022-12-13T23:59:26.049Z,0.43
